Disclaimer

Please do not use the information listed here in-flight or in-navigation, as they are not provided to us by the airports but are provided by volunteers, so they might be outdated.

Search


Regions


Airport information page

Radio informations:
FERNANDO TWR - 120.7 MHz
Ground (GND) - 121.65 MHz

Airport informations:
Latitude: 34° 27' 11.48" S
Longitude: 058° 35' 22.72" W
Elevation: 10 feet - 3 meters
Operating hours: N/A
Operating agency: Civil government, landing fees and diplomatic clearance may be required
Timezone: UTC-3
Fuel: Jet A1, without icing nhibitor.

100/130 MIL Spec, low lead, aviation gasoline (BLUE)

Runway information:
05/23 - 6253 x 98 feet< - >1906 x 30 meters

Recent METARs:
SADF 190800Z 32003KT CAVOK 13/11 Q1016
SADF 190900Z 00000KT CAVOK 13/11 Q1016
SADF 190900Z 00000KT CAVOK 13/11 Q1016

Airport on the map: